Samuels Field (BRY)

 

Airport Diagram
No Airport Diagram Available
Current Weather/Forecast (VFR Conditions)
METAR KBRY 270255Z AUTO 00000KT 10SM CLR 08/07 A3025 RMK AO1
TAF

Airport Information

All Charts
General
Chart Name View
TAKEOFF MINIMUMS
ALTERNATE MINIMUMS
TAKEOFF MINIMUMS
ALTERNATE MINIMUMS

Approaches
Chart Name Download
RNAV (GPS) RWY 03
RNAV (GPS) RWY 21
VOR RWY 03
RNAV (GPS) RWY 03
RNAV (GPS) RWY 21
VOR RWY 03


Airport Statistics
Departures Arrivals Local
All Collected Stats since June 2016: 11 10 0
2020 Stats: 4 2 0
October Stats: 2 0 0

Inbound Traffic (Arrivals) - 0

No inbound traffic.


Outbound Traffic (Departures) - 0

No outbound traffic.


Local Traffic (Pattern) - 0

No local traffic.